sensor_id;sensor_type;location;lat;lon;timestamp;temperature;humidity
24224;DHT22;12359;49.716;9.212;2024-02-21T00:00:47;7.80;1.00
24224;DHT22;12359;49.716;9.212;2024-02-21T00:03:13;7.90;1.00
24224;DHT22;12359;49.716;9.212;2024-02-21T00:05:38;7.90;1.00
24224;DHT22;12359;49.716;9.212;2024-02-21T00:08:04;8.00;1.00
24224;DHT22;12359;49.716;9.212;2024-02-21T00:10:30;8.10;1.00
24224;DHT22;12359;49.716;9.212;2024-02-21T00:12:58;8.10;1.00
24224;DHT22;12359;49.716;9.212;2024-02-21T00:15:25;8.20;1.00
24224;DHT22;12359;49.716;9.212;2024-02-21T00:17:51;8.20;1.00
24224;DHT22;12359;49.716;9.212;2024-02-21T00:20:16;8.20;1.00
24224;DHT22;12359;49.716;9.212;2024-02-21T00:22:43;8.30;1.00
24224;DHT22;12359;49.716;9.212;2024-02-21T00:25:09;8.30;1.00
24224;DHT22;12359;49.716;9.212;2024-02-21T00:27:35;8.40;1.00
24224;DHT22;12359;49.716;9.212;2024-02-21T00:30:02;8.40;1.00
24224;DHT22;12359;49.716;9.212;2024-02-21T00:32:27;8.50;1.00
24224;DHT22;12359;49.716;9.212;2024-02-21T00:34:53;8.50;99.90
24224;DHT22;12359;49.716;9.212;2024-02-21T00:37:19;8.60;99.90
24224;DHT22;12359;49.716;9.212;2024-02-21T00:39:44;8.70;99.90
24224;DHT22;12359;49.716;9.212;2024-02-21T00:42:10;8.70;99.90
24224;DHT22;12359;49.716;9.212;2024-02-21T00:44:36;8.80;99.90
24224;DHT22;12359;49.716;9.212;2024-02-21T00:47:01;8.80;99.90
24224;DHT22;12359;49.716;9.212;2024-02-21T00:49:27;8.90;99.90
24224;DHT22;12359;49.716;9.212;2024-02-21T00:51:53;8.90;99.90
24224;DHT22;12359;49.716;9.212;2024-02-21T00:54:18;9.00;99.90
24224;DHT22;12359;49.716;9.212;2024-02-21T00:56:44;9.10;99.90
24224;DHT22;12359;49.716;9.212;2024-02-21T00:59:10;9.10;99.90
24224;DHT22;12359;49.716;9.212;2024-02-21T01:01:35;9.10;99.90
24224;DHT22;12359;49.716;9.212;2024-02-21T01:04:01;9.10;99.90
24224;DHT22;12359;49.716;9.212;2024-02-21T01:06:27;9.10;99.90
24224;DHT22;12359;49.716;9.212;2024-02-21T01:08:52;9.20;99.90
24224;DHT22;12359;49.716;9.212;2024-02-21T01:11:18;9.20;99.90
24224;DHT22;12359;49.716;9.212;2024-02-21T01:13:44;9.20;99.90
24224;DHT22;12359;49.716;9.212;2024-02-21T01:16:10;9.20;99.90
24224;DHT22;12359;49.716;9.212;2024-02-21T01:18:37;9.20;99.90
24224;DHT22;12359;49.716;9.212;2024-02-21T01:21:05;9.20;99.90
24224;DHT22;12359;49.716;9.212;2024-02-21T01:23:36;9.20;99.90
24224;DHT22;12359;49.716;9.212;2024-02-21T01:26:02;9.20;99.90
24224;DHT22;12359;49.716;9.212;2024-02-21T01:28:28;9.20;99.90
24224;DHT22;12359;49.716;9.212;2024-02-21T01:30:54;9.20;99.90
24224;DHT22;12359;49.716;9.212;2024-02-21T01:33:20;9.10;99.90
24224;DHT22;12359;49.716;9.212;2024-02-21T01:35:46;9.10;51.70
24224;DHT22;12359;49.716;9.212;2024-02-21T01:38:12;9.20;97.70
24224;DHT22;12359;49.716;9.212;2024-02-21T01:40:38;9.20;99.90
24224;DHT22;12359;49.716;9.212;2024-02-21T01:43:19;9.10;70.60
24224;DHT22;12359;49.716;9.212;2024-02-21T01:45:53;9.10;45.10
24224;DHT22;12359;49.716;9.212;2024-02-21T01:48:24;9.10;24.50
24224;DHT22;12359;49.716;9.212;2024-02-21T01:50:51;9.20;63.70
24224;DHT22;12359;49.716;9.212;2024-02-21T01:53:19;9.20;93.90
24224;DHT22;12359;49.716;9.212;2024-02-21T01:55:46;9.10;99.90
24224;DHT22;12359;49.716;9.212;2024-02-21T01:58:13;9.10;99.90
24224;DHT22;12359;49.716;9.212;2024-02-21T02:00:42;9.00;99.90
24224;DHT22;12359;49.716;9.212;2024-02-21T02:03:12;9.00;99.90
24224;DHT22;12359;49.716;9.212;2024-02-21T02:05:48;9.00;99.90
24224;DHT22;12359;49.716;9.212;2024-02-21T02:08:15;9.00;99.90
24224;DHT22;12359;49.716;9.212;2024-02-21T02:10:41;9.00;99.90
24224;DHT22;12359;49.716;9.212;2024-02-21T02:13:08;9.00;99.90
24224;DHT22;12359;49.716;9.212;2024-02-21T02:15:46;9.00;99.90
24224;DHT22;12359;49.716;9.212;2024-02-21T02:18:14;8.90;99.90
24224;DHT22;12359;49.716;9.212;2024-02-21T02:20:40;8.90;99.90
24224;DHT22;12359;49.716;9.212;2024-02-21T02:25:50;8.90;99.90
24224;DHT22;12359;49.716;9.212;2024-02-21T02:28:20;8.90;99.90
24224;DHT22;12359;49.716;9.212;2024-02-21T02:30:46;8.80;99.90
24224;DHT22;12359;49.716;9.212;2024-02-21T02:33:12;8.80;99.90
24224;DHT22;12359;49.716;9.212;2024-02-21T02:35:38;8.90;99.90
24224;DHT22;12359;49.716;9.212;2024-02-21T02:38:04;8.90;99.90
24224;DHT22;12359;49.716;9.212;2024-02-21T02:40:34;8.90;99.90
24224;DHT22;12359;49.716;9.212;2024-02-21T02:43:00;8.80;99.90
24224;DHT22;12359;49.716;9.212;2024-02-21T02:45:26;8.80;99.90
24224;DHT22;12359;49.716;9.212;2024-02-21T02:47:55;8.80;99.90
24224;DHT22;12359;49.716;9.212;2024-02-21T02:50:23;8.70;99.90
24224;DHT22;12359;49.716;9.212;2024-02-21T02:52:48;8.70;1.00
24224;DHT22;12359;49.716;9.212;2024-02-21T02:55:15;8.70;1.00
24224;DHT22;12359;49.716;9.212;2024-02-21T02:57:40;8.60;1.00
24224;DHT22;12359;49.716;9.212;2024-02-21T03:00:13;8.60;1.00
24224;DHT22;12359;49.716;9.212;2024-02-21T03:02:42;8.50;99.90
24224;DHT22;12359;49.716;9.212;2024-02-21T03:05:15;8.60;99.90
24224;DHT22;12359;49.716;9.212;2024-02-21T03:07:41;8.60;99.90
24224;DHT22;12359;49.716;9.212;2024-02-21T03:10:08;8.60;1.00
24224;DHT22;12359;49.716;9.212;2024-02-21T03:12:34;8.60;1.00
24224;DHT22;12359;49.716;9.212;2024-02-21T03:14:59;8.60;99.90
24224;DHT22;12359;49.716;9.212;2024-02-21T03:17:25;8.70;99.90
24224;DHT22;12359;49.716;9.212;2024-02-21T03:19:52;8.70;99.90
24224;DHT22;12359;49.716;9.212;2024-02-21T03:22:18;8.70;99.90
24224;DHT22;12359;49.716;9.212;2024-02-21T03:24:44;8.70;99.90
24224;DHT22;12359;49.716;9.212;2024-02-21T03:27:10;8.60;99.90
24224;DHT22;12359;49.716;9.212;2024-02-21T03:29:36;8.50;99.90
24224;DHT22;12359;49.716;9.212;2024-02-21T03:32:02;8.50;99.90
24224;DHT22;12359;49.716;9.212;2024-02-21T03:34:27;8.50;99.90
24224;DHT22;12359;49.716;9.212;2024-02-21T03:36:53;8.50;99.90
24224;DHT22;12359;49.716;9.212;2024-02-21T03:39:19;8.50;99.90
24224;DHT22;12359;49.716;9.212;2024-02-21T03:41:44;8.50;1.00
24224;DHT22;12359;49.716;9.212;2024-02-21T03:44:10;8.50;1.00
24224;DHT22;12359;49.716;9.212;2024-02-21T03:46:36;8.40;1.00
24224;DHT22;12359;49.716;9.212;2024-02-21T03:49:01;8.40;1.00
24224;DHT22;12359;49.716;9.212;2024-02-21T03:51:27;8.30;1.00
24224;DHT22;12359;49.716;9.212;2024-02-21T03:53:53;8.30;1.00
24224;DHT22;12359;49.716;9.212;2024-02-21T03:56:18;8.30;1.00
24224;DHT22;12359;49.716;9.212;2024-02-21T03:58:44;8.30;1.00
24224;DHT22;12359;49.716;9.212;2024-02-21T04:01:09;8.30;99.90
24224;DHT22;12359;49.716;9.212;2024-02-21T04:03:35;8.20;1.00
24224;DHT22;12359;49.716;9.212;2024-02-21T04:06:01;8.10;1.00
24224;DHT22;12359;49.716;9.212;2024-02-21T04:08:26;8.10;1.00
24224;DHT22;12359;49.716;9.212;2024-02-21T04:10:52;8.00;1.00
24224;DHT22;12359;49.716;9.212;2024-02-21T04:13:18;7.90;1.00
24224;DHT22;12359;49.716;9.212;2024-02-21T04:15:43;7.80;1.00
24224;DHT22;12359;49.716;9.212;2024-02-21T04:18:09;7.80;1.00
24224;DHT22;12359;49.716;9.212;2024-02-21T04:20:35;7.70;1.00
24224;DHT22;12359;49.716;9.212;2024-02-21T04:23:01;7.60;1.00
24224;DHT22;12359;49.716;9.212;2024-02-21T04:25:26;7.60;1.00
24224;DHT22;12359;49.716;9.212;2024-02-21T04:27:52;7.50;1.00
24224;DHT22;12359;49.716;9.212;2024-02-21T04:30:18;7.40;1.00
24224;DHT22;12359;49.716;9.212;2024-02-21T04:32:44;7.30;1.00
24224;DHT22;12359;49.716;9.212;2024-02-21T04:35:10;7.30;1.00
24224;DHT22;12359;49.716;9.212;2024-02-21T04:37:35;7.20;1.00
24224;DHT22;12359;49.716;9.212;2024-02-21T04:40:01;7.10;1.00
24224;DHT22;12359;49.716;9.212;2024-02-21T04:42:27;7.00;1.00
24224;DHT22;12359;49.716;9.212;2024-02-21T04:44:52;7.00;1.00
24224;DHT22;12359;49.716;9.212;2024-02-21T04:47:18;7.00;1.00
24224;DHT22;12359;49.716;9.212;2024-02-21T04:49:45;6.90;1.00
24224;DHT22;12359;49.716;9.212;2024-02-21T04:52:12;6.80;1.00
24224;DHT22;12359;49.716;9.212;2024-02-21T04:54:37;6.80;1.00
24224;DHT22;12359;49.716;9.212;2024-02-21T04:57:03;6.80;1.00
24224;DHT22;12359;49.716;9.212;2024-02-21T04:59:29;6.70;1.00
24224;DHT22;12359;49.716;9.212;2024-02-21T05:01:55;6.70;1.00
24224;DHT22;12359;49.716;9.212;2024-02-21T05:04:21;6.70;1.00
24224;DHT22;12359;49.716;9.212;2024-02-21T05:06:47;6.70;1.00
24224;DHT22;12359;49.716;9.212;2024-02-21T05:09:12;6.70;1.00
24224;DHT22;12359;49.716;9.212;2024-02-21T05:11:38;6.60;1.00
24224;DHT22;12359;49.716;9.212;2024-02-21T05:14:04;6.50;1.00
24224;DHT22;12359;49.716;9.212;2024-02-21T05:16:31;6.50;1.00
24224;DHT22;12359;49.716;9.212;2024-02-21T05:18:57;6.40;2.30
24224;DHT22;12359;49.716;9.212;2024-02-21T05:21:26;6.40;10.60
24224;DHT22;12359;49.716;9.212;2024-02-21T05:23:52;6.40;2.80
24224;DHT22;12359;49.716;9.212;2024-02-21T05:26:24;6.30;1.00
24224;DHT22;12359;49.716;9.212;2024-02-21T05:28:50;6.30;8.50
24224;DHT22;12359;49.716;9.212;2024-02-21T05:31:18;6.20;8.90
24224;DHT22;12359;49.716;9.212;2024-02-21T05:33:44;6.10;3.30
24224;DHT22;12359;49.716;9.212;2024-02-21T05:36:10;6.10;16.10
24224;DHT22;12359;49.716;9.212;2024-02-21T05:38:36;6.10;16.90
24224;DHT22;12359;49.716;9.212;2024-02-21T05:41:02;6.10;22.20
24224;DHT22;12359;49.716;9.212;2024-02-21T05:43:27;6.10;26.50
24224;DHT22;12359;49.716;9.212;2024-02-21T05:45:53;6.10;27.20
24224;DHT22;12359;49.716;9.212;2024-02-21T05:48:21;6.10;25.60
24224;DHT22;12359;49.716;9.212;2024-02-21T05:50:46;6.20;30.90
24224;DHT22;12359;49.716;9.212;2024-02-21T05:53:12;6.10;23.70
24224;DHT22;12359;49.716;9.212;2024-02-21T05:55:38;6.10;19.10
24224;DHT22;12359;49.716;9.212;2024-02-21T05:58:04;6.00;13.70
24224;DHT22;12359;49.716;9.212;2024-02-21T06:00:31;6.00;14.50
24224;DHT22;12359;49.716;9.212;2024-02-21T06:02:57;5.90;22.80
24224;DHT22;12359;49.716;9.212;2024-02-21T06:05:23;5.90;18.40
24224;DHT22;12359;49.716;9.212;2024-02-21T06:07:48;5.90;25.60
24224;DHT22;12359;49.716;9.212;2024-02-21T06:10:14;5.80;25.70
24224;DHT22;12359;49.716;9.212;2024-02-21T06:12:40;5.70;26.90
24224;DHT22;12359;49.716;9.212;2024-02-21T06:15:06;5.70;35.50
24224;DHT22;12359;49.716;9.212;2024-02-21T06:17:32;5.70;38.30
24224;DHT22;12359;49.716;9.212;2024-02-21T06:19:57;5.80;41.80
24224;DHT22;12359;49.716;9.212;2024-02-21T06:22:23;5.80;46.00
24224;DHT22;12359;49.716;9.212;2024-02-21T06:24:49;5.90;42.60
24224;DHT22;12359;49.716;9.212;2024-02-21T06:27:15;5.90;36.80
24224;DHT22;12359;49.716;9.212;2024-02-21T06:29:42;5.90;33.70
24224;DHT22;12359;49.716;9.212;2024-02-21T06:32:07;5.90;28.20
24224;DHT22;12359;49.716;9.212;2024-02-21T06:34:33;5.90;27.40
24224;DHT22;12359;49.716;9.212;2024-02-21T06:36:59;5.90;25.40
24224;DHT22;12359;49.716;9.212;2024-02-21T06:39:25;5.80;24.50
24224;DHT22;12359;49.716;9.212;2024-02-21T06:41:50;5.90;28.40
24224;DHT22;12359;49.716;9.212;2024-02-21T06:44:17;5.90;25.80
24224;DHT22;12359;49.716;9.212;2024-02-21T06:46:43;6.00;28.90
24224;DHT22;12359;49.716;9.212;2024-02-21T06:49:08;6.10;28.00
24224;DHT22;12359;49.716;9.212;2024-02-21T06:51:34;6.20;24.80
24224;DHT22;12359;49.716;9.212;2024-02-21T06:54:00;6.40;21.10
24224;DHT22;12359;49.716;9.212;2024-02-21T06:56:26;6.50;15.20
24224;DHT22;12359;49.716;9.212;2024-02-21T06:58:55;6.70;8.80
24224;DHT22;12359;49.716;9.212;2024-02-21T07:01:21;6.80;1.00
24224;DHT22;12359;49.716;9.212;2024-02-21T07:03:47;6.90;1.00
24224;DHT22;12359;49.716;9.212;2024-02-21T07:06:13;7.00;1.00
24224;DHT22;12359;49.716;9.212;2024-02-21T07:08:38;7.10;1.00
24224;DHT22;12359;49.716;9.212;2024-02-21T07:11:05;7.10;1.00
24224;DHT22;12359;49.716;9.212;2024-02-21T07:13:31;7.30;1.00
24224;DHT22;12359;49.716;9.212;2024-02-21T07:15:57;7.50;1.00
24224;DHT22;12359;49.716;9.212;2024-02-21T07:18:23;7.70;1.00
24224;DHT22;12359;49.716;9.212;2024-02-21T07:20:51;7.80;1.00
24224;DHT22;12359;49.716;9.212;2024-02-21T07:23:17;8.00;1.00
24224;DHT22;12359;49.716;9.212;2024-02-21T07:25:43;8.30;1.00
24224;DHT22;12359;49.716;9.212;2024-02-21T07:28:09;8.60;99.90
24224;DHT22;12359;49.716;9.212;2024-02-21T07:30:35;8.70;99.90
24224;DHT22;12359;49.716;9.212;2024-02-21T07:33:00;8.80;99.90
24224;DHT22;12359;49.716;9.212;2024-02-21T07:35:26;9.00;99.90
24224;DHT22;12359;49.716;9.212;2024-02-21T07:37:52;9.00;99.90
24224;DHT22;12359;49.716;9.212;2024-02-21T07:40:18;9.00;21.50
24224;DHT22;12359;49.716;9.212;2024-02-21T07:42:43;9.00;68.40
24224;DHT22;12359;49.716;9.212;2024-02-21T07:45:10;9.20;64.30
24224;DHT22;12359;49.716;9.212;2024-02-21T07:47:36;9.30;1.00
24224;DHT22;12359;49.716;9.212;2024-02-21T07:50:03;9.70;99.90
24224;DHT22;12359;49.716;9.212;2024-02-21T07:52:29;10.30;12.30
24224;DHT22;12359;49.716;9.212;2024-02-21T07:54:54;11.00;99.90
24224;DHT22;12359;49.716;9.212;2024-02-21T07:57:20;11.10;1.00
24224;DHT22;12359;49.716;9.212;2024-02-21T07:59:47;11.60;99.90
24224;DHT22;12359;49.716;9.212;2024-02-21T08:02:16;12.20;99.90
24224;DHT22;12359;49.716;9.212;2024-02-21T08:04:42;12.70;1.00
24224;DHT22;12359;49.716;9.212;2024-02-21T08:07:09;13.00;1.00
24224;DHT22;12359;49.716;9.212;2024-02-21T08:09:35;12.90;1.00
24224;DHT22;12359;49.716;9.212;2024-02-21T08:12:04;12.90;99.90
24224;DHT22;12359;49.716;9.212;2024-02-21T08:14:29;13.20;99.90
24224;DHT22;12359;49.716;9.212;2024-02-21T08:16:55;13.30;1.00
24224;DHT22;12359;49.716;9.212;2024-02-21T08:19:21;13.60;99.90
24224;DHT22;12359;49.716;9.212;2024-02-21T08:21:50;13.90;99.90
24224;DHT22;12359;49.716;9.212;2024-02-21T08:24:16;14.10;1.00
24224;DHT22;12359;49.716;9.212;2024-02-21T08:26:42;14.00;1.00
24224;DHT22;12359;49.716;9.212;2024-02-21T08:29:10;14.00;1.00
24224;DHT22;12359;49.716;9.212;2024-02-21T08:31:35;13.80;1.00
24224;DHT22;12359;49.716;9.212;2024-02-21T08:34:01;13.60;34.30
24224;DHT22;12359;49.716;9.212;2024-02-21T08:36:30;13.40;80.60
24224;DHT22;12359;49.716;9.212;2024-02-21T08:38:56;13.30;99.90
24224;DHT22;12359;49.716;9.212;2024-02-21T08:41:23;13.20;1.00
24224;DHT22;12359;49.716;9.212;2024-02-21T08:43:50;13.00;1.00
24224;DHT22;12359;49.716;9.212;2024-02-21T08:46:16;12.80;1.00
24224;DHT22;12359;49.716;9.212;2024-02-21T08:48:43;12.20;99.90
24224;DHT22;12359;49.716;9.212;2024-02-21T08:51:11;11.70;76.00
24224;DHT22;12359;49.716;9.212;2024-02-21T08:53:37;11.70;99.90
24224;DHT22;12359;49.716;9.212;2024-02-21T08:56:03;11.40;1.00
24224;DHT22;12359;49.716;9.212;2024-02-21T08:58:29;11.40;1.00
24224;DHT22;12359;49.716;9.212;2024-02-21T09:00:55;11.30;99.90
24224;DHT22;12359;49.716;9.212;2024-02-21T09:03:22;10.90;99.90
24224;DHT22;12359;49.716;9.212;2024-02-21T09:05:48;10.80;34.40
24224;DHT22;12359;49.716;9.212;2024-02-21T09:08:13;10.90;99.90
24224;DHT22;12359;49.716;9.212;2024-02-21T09:10:42;10.90;39.00
24224;DHT22;12359;49.716;9.212;2024-02-21T09:13:08;11.10;1.00
24224;DHT22;12359;49.716;9.212;2024-02-21T09:15:34;11.30;35.90
24224;DHT22;12359;49.716;9.212;2024-02-21T09:18:00;11.50;99.90
24224;DHT22;12359;49.716;9.212;2024-02-21T09:20:25;11.90;1.00
24224;DHT22;12359;49.716;9.212;2024-02-21T09:22:51;12.30;99.90
24224;DHT22;12359;49.716;9.212;2024-02-21T09:25:19;12.60;55.70
24224;DHT22;12359;49.716;9.212;2024-02-21T09:27:45;12.80;1.00
24224;DHT22;12359;49.716;9.212;2024-02-21T09:30:11;13.20;99.90
24224;DHT22;12359;49.716;9.212;2024-02-21T09:32:38;13.40;99.90
24224;DHT22;12359;49.716;9.212;2024-02-21T09:35:04;13.70;1.00
24224;DHT22;12359;49.716;9.212;2024-02-21T09:37:31;14.20;1.00
24224;DHT22;12359;49.716;9.212;2024-02-21T09:39:57;14.60;99.90
24224;DHT22;12359;49.716;9.212;2024-02-21T09:42:28;14.70;1.00
24224;DHT22;12359;49.716;9.212;2024-02-21T09:44:56;14.90;1.00
24224;DHT22;12359;49.716;9.212;2024-02-21T09:47:28;14.80;1.00
24224;DHT22;12359;49.716;9.212;2024-02-21T09:49:57;14.30;1.00
24224;DHT22;12359;49.716;9.212;2024-02-21T09:52:24;14.70;1.00
24224;DHT22;12359;49.716;9.212;2024-02-21T09:54:52;14.80;1.00
24224;DHT22;12359;49.716;9.212;2024-02-21T09:57:18;15.20;99.90
24224;DHT22;12359;49.716;9.212;2024-02-21T09:59:45;15.90;99.90
24224;DHT22;12359;49.716;9.212;2024-02-21T10:02:11;16.00;99.90
24224;DHT22;12359;49.716;9.212;2024-02-21T10:04:39;16.30;99.90
24224;DHT22;12359;49.716;9.212;2024-02-21T10:07:05;16.60;99.90
24224;DHT22;12359;49.716;9.212;2024-02-21T10:09:31;16.80;99.90
24224;DHT22;12359;49.716;9.212;2024-02-21T10:12:11;16.60;99.90
24224;DHT22;12359;49.716;9.212;2024-02-21T10:14:38;17.20;99.90
24224;DHT22;12359;49.716;9.212;2024-02-21T10:17:04;17.60;99.90
24224;DHT22;12359;49.716;9.212;2024-02-21T10:19:34;17.70;96.90
24224;DHT22;12359;49.716;9.212;2024-02-21T10:22:05;18.10;92.40
24224;DHT22;12359;49.716;9.212;2024-02-21T10:24:36;18.20;48.50
24224;DHT22;12359;49.716;9.212;2024-02-21T10:27:08;18.20;42.80
24224;DHT22;12359;49.716;9.212;2024-02-21T10:29:36;18.00;18.40
24224;DHT22;12359;49.716;9.212;2024-02-21T10:32:06;17.10;16.80
24224;DHT22;12359;49.716;9.212;2024-02-21T10:34:32;17.20;34.60
24224;DHT22;12359;49.716;9.212;2024-02-21T10:37:06;17.60;31.60
24224;DHT22;12359;49.716;9.212;2024-02-21T10:39:33;18.50;13.50
24224;DHT22;12359;49.716;9.212;2024-02-21T10:42:03;18.60;18.30
24224;DHT22;12359;49.716;9.212;2024-02-21T10:44:37;19.00;7.40
24224;DHT22;12359;49.716;9.212;2024-02-21T10:47:12;19.30;4.30
24224;DHT22;12359;49.716;9.212;2024-02-21T10:49:44;18.80;1.00
24224;DHT22;12359;49.716;9.212;2024-02-21T10:57:18;18.20;1.00
24224;DHT22;12359;49.716;9.212;2024-02-21T10:59:45;18.00;1.00
24224;DHT22;12359;49.716;9.212;2024-02-21T11:02:11;17.90;1.00
24224;DHT22;12359;49.716;9.212;2024-02-21T11:04:37;17.00;1.00
24224;DHT22;12359;49.716;9.212;2024-02-21T11:07:04;17.00;1.00
24224;DHT22;12359;49.716;9.212;2024-02-21T11:09:31;16.80;1.00
24224;DHT22;12359;49.716;9.212;2024-02-21T11:11:58;16.80;1.00
24224;DHT22;12359;49.716;9.212;2024-02-21T11:14:27;16.80;1.00
24224;DHT22;12359;49.716;9.212;2024-02-21T11:16:53;16.60;1.00
24224;DHT22;12359;49.716;9.212;2024-02-21T11:19:28;16.50;1.00
24224;DHT22;12359;49.716;9.212;2024-02-21T11:21:55;16.10;1.00
24224;DHT22;12359;49.716;9.212;2024-02-21T11:24:28;16.30;22.10
24224;DHT22;12359;49.716;9.212;2024-02-21T11:27:16;16.50;19.10
24224;DHT22;12359;49.716;9.212;2024-02-21T11:32:20;16.00;10.80
24224;DHT22;12359;49.716;9.212;2024-02-21T11:35:02;15.50;21.80
24224;DHT22;12359;49.716;9.212;2024-02-21T11:37:33;14.80;25.70
24224;DHT22;12359;49.716;9.212;2024-02-21T11:40:00;14.90;52.00
24224;DHT22;12359;49.716;9.212;2024-02-21T11:42:29;14.60;57.20
24224;DHT22;12359;49.716;9.212;2024-02-21T11:44:59;14.50;68.70
24224;DHT22;12359;49.716;9.212;2024-02-21T11:47:25;14.20;94.70
24224;DHT22;12359;49.716;9.212;2024-02-21T11:49:51;14.20;99.90
24224;DHT22;12359;49.716;9.212;2024-02-21T11:52:24;14.40;99.90
24224;DHT22;12359;49.716;9.212;2024-02-21T11:54:53;14.50;99.90
24224;DHT22;12359;49.716;9.212;2024-02-21T11:57:20;14.30;99.90
24224;DHT22;12359;49.716;9.212;2024-02-21T11:59:46;14.10;99.90
24224;DHT22;12359;49.716;9.212;2024-02-21T12:02:12;14.00;99.90
24224;DHT22;12359;49.716;9.212;2024-02-21T12:04:39;14.20;99.90
24224;DHT22;12359;49.716;9.212;2024-02-21T12:07:05;14.10;99.90
24224;DHT22;12359;49.716;9.212;2024-02-21T12:09:31;14.00;99.90
24224;DHT22;12359;49.716;9.212;2024-02-21T12:12:07;13.90;99.90
24224;DHT22;12359;49.716;9.212;2024-02-21T12:14:35;14.10;99.90
24224;DHT22;12359;49.716;9.212;2024-02-21T12:17:02;14.30;99.90
24224;DHT22;12359;49.716;9.212;2024-02-21T12:19:32;14.20;99.90
24224;DHT22;12359;49.716;9.212;2024-02-21T12:21:59;14.40;99.90
24224;DHT22;12359;49.716;9.212;2024-02-21T12:24:27;14.50;99.90
24224;DHT22;12359;49.716;9.212;2024-02-21T12:26:53;14.50;98.40
24224;DHT22;12359;49.716;9.212;2024-02-21T12:29:20;14.40;98.80
24224;DHT22;12359;49.716;9.212;2024-02-21T12:31:46;14.50;99.90
24224;DHT22;12359;49.716;9.212;2024-02-21T12:34:12;14.30;98.30
24224;DHT22;12359;49.716;9.212;2024-02-21T12:36:45;14.10;92.00
24224;DHT22;12359;49.716;9.212;2024-02-21T12:39:13;14.00;87.40
24224;DHT22;12359;49.716;9.212;2024-02-21T12:41:40;13.70;99.70
24224;DHT22;12359;49.716;9.212;2024-02-21T12:44:07;13.70;99.90
24224;DHT22;12359;49.716;9.212;2024-02-21T12:46:36;13.70;99.90
24224;DHT22;12359;49.716;9.212;2024-02-21T12:49:03;13.70;99.90
24224;DHT22;12359;49.716;9.212;2024-02-21T12:51:32;13.70;99.90
24224;DHT22;12359;49.716;9.212;2024-02-21T12:53:58;13.70;99.90
24224;DHT22;12359;49.716;9.212;2024-02-21T12:56:24;13.70;99.90
24224;DHT22;12359;49.716;9.212;2024-02-21T12:58:53;13.80;99.90
24224;DHT22;12359;49.716;9.212;2024-02-21T13:01:18;14.00;99.90
24224;DHT22;12359;49.716;9.212;2024-02-21T13:03:44;14.10;99.90
24224;DHT22;12359;49.716;9.212;2024-02-21T13:06:12;14.10;99.90
24224;DHT22;12359;49.716;9.212;2024-02-21T13:08:38;14.30;99.90
24224;DHT22;12359;49.716;9.212;2024-02-21T13:11:04;14.40;99.90
24224;DHT22;12359;49.716;9.212;2024-02-21T13:13:30;14.50;99.90
24224;DHT22;12359;49.716;9.212;2024-02-21T13:15:57;14.40;99.90
24224;DHT22;12359;49.716;9.212;2024-02-21T13:18:23;14.50;95.60
24224;DHT22;12359;49.716;9.212;2024-02-21T13:20:48;14.50;99.80
24224;DHT22;12359;49.716;9.212;2024-02-21T13:23:14;14.60;93.10
24224;DHT22;12359;49.716;9.212;2024-02-21T13:25:40;14.50;84.80
24224;DHT22;12359;49.716;9.212;2024-02-21T13:28:05;14.50;90.80
24224;DHT22;12359;49.716;9.212;2024-02-21T13:30:32;14.40;92.00
24224;DHT22;12359;49.716;9.212;2024-02-21T13:32:58;14.20;89.60
24224;DHT22;12359;49.716;9.212;2024-02-21T13:35:23;14.10;99.90
24224;DHT22;12359;49.716;9.212;2024-02-21T13:37:49;14.00;99.90
24224;DHT22;12359;49.716;9.212;2024-02-21T13:40:16;14.10;99.90
24224;DHT22;12359;49.716;9.212;2024-02-21T13:42:42;14.10;99.90
24224;DHT22;12359;49.716;9.212;2024-02-21T13:45:09;14.00;99.70
24224;DHT22;12359;49.716;9.212;2024-02-21T13:47:35;13.90;99.90
24224;DHT22;12359;49.716;9.212;2024-02-21T13:50:05;13.90;99.90
24224;DHT22;12359;49.716;9.212;2024-02-21T13:52:34;13.90;99.90
24224;DHT22;12359;49.716;9.212;2024-02-21T13:54:59;13.80;99.90
24224;DHT22;12359;49.716;9.212;2024-02-21T13:57:25;13.70;99.90
24224;DHT22;12359;49.716;9.212;2024-02-21T13:59:51;13.70;99.90
24224;DHT22;12359;49.716;9.212;2024-02-21T14:02:18;13.50;99.90
24224;DHT22;12359;49.716;9.212;2024-02-21T14:04:43;13.50;99.90
24224;DHT22;12359;49.716;9.212;2024-02-21T14:07:09;13.50;99.90
24224;DHT22;12359;49.716;9.212;2024-02-21T14:09:35;13.50;99.90
24224;DHT22;12359;49.716;9.212;2024-02-21T14:12:01;13.50;99.90
24224;DHT22;12359;49.716;9.212;2024-02-21T14:14:27;13.40;99.90
24224;DHT22;12359;49.716;9.212;2024-02-21T14:16:53;13.40;99.90
24224;DHT22;12359;49.716;9.212;2024-02-21T14:19:18;13.30;99.90
24224;DHT22;12359;49.716;9.212;2024-02-21T14:21:44;13.20;99.90
24224;DHT22;12359;49.716;9.212;2024-02-21T14:24:11;13.30;99.90
24224;DHT22;12359;49.716;9.212;2024-02-21T14:26:37;13.30;99.90
24224;DHT22;12359;49.716;9.212;2024-02-21T14:29:04;13.40;99.90
24224;DHT22;12359;49.716;9.212;2024-02-21T14:31:33;13.40;99.90
24224;DHT22;12359;49.716;9.212;2024-02-21T14:33:58;13.50;99.90
24224;DHT22;12359;49.716;9.212;2024-02-21T14:36:26;13.50;99.90
24224;DHT22;12359;49.716;9.212;2024-02-21T14:38:52;13.50;99.90
24224;DHT22;12359;49.716;9.212;2024-02-21T14:41:18;13.40;99.90
24224;DHT22;12359;49.716;9.212;2024-02-21T14:43:44;13.20;99.90
24224;DHT22;12359;49.716;9.212;2024-02-21T14:46:10;13.00;99.90
24224;DHT22;12359;49.716;9.212;2024-02-21T14:48:38;13.00;99.90
24224;DHT22;12359;49.716;9.212;2024-02-21T14:51:03;12.90;99.90
24224;DHT22;12359;49.716;9.212;2024-02-21T14:53:29;12.90;99.90
24224;DHT22;12359;49.716;9.212;2024-02-21T14:55:56;12.80;99.90
24224;DHT22;12359;49.716;9.212;2024-02-21T14:58:23;12.80;99.90
24224;DHT22;12359;49.716;9.212;2024-02-21T15:00:49;12.90;99.90
24224;DHT22;12359;49.716;9.212;2024-02-21T15:03:18;12.90;99.90
24224;DHT22;12359;49.716;9.212;2024-02-21T15:05:47;12.80;99.90
24224;DHT22;12359;49.716;9.212;2024-02-21T15:08:13;12.70;99.90
24224;DHT22;12359;49.716;9.212;2024-02-21T15:10:42;12.70;99.90
24224;DHT22;12359;49.716;9.212;2024-02-21T15:13:08;12.60;99.90
24224;DHT22;12359;49.716;9.212;2024-02-21T15:15:34;12.60;99.90
24224;DHT22;12359;49.716;9.212;2024-02-21T15:18:00;12.50;99.90
24224;DHT22;12359;49.716;9.212;2024-02-21T15:20:25;12.50;99.90
24224;DHT22;12359;49.716;9.212;2024-02-21T15:22:52;12.40;99.90
24224;DHT22;12359;49.716;9.212;2024-02-21T15:25:17;12.40;99.90
24224;DHT22;12359;49.716;9.212;2024-02-21T15:27:44;12.30;99.90
24224;DHT22;12359;49.716;9.212;2024-02-21T15:30:13;12.30;99.90
24224;DHT22;12359;49.716;9.212;2024-02-21T15:32:40;12.20;99.90
24224;DHT22;12359;49.716;9.212;2024-02-21T15:35:09;12.20;99.90
24224;DHT22;12359;49.716;9.212;2024-02-21T15:37:38;12.10;99.90
24224;DHT22;12359;49.716;9.212;2024-02-21T15:40:04;12.10;99.90
24224;DHT22;12359;49.716;9.212;2024-02-21T15:42:32;12.00;99.90
24224;DHT22;12359;49.716;9.212;2024-02-21T15:44:58;12.00;99.90
24224;DHT22;12359;49.716;9.212;2024-02-21T15:47:27;12.00;99.90
24224;DHT22;12359;49.716;9.212;2024-02-21T15:49:53;11.90;99.90